Latest Weather Observations for Mt Wellington

IDT60901

Issued at 6:55 am EST Wednesday 30 July 2014 (issued every 10 minutes, with the page automatically refreshed every 10 minutes)

About weather observations | Map of Hobart area stations | Latest observations for Hobart area | Other Formats
Station Details ID: 094087 Name: MOUNT WELLINGTON Lat: -42.90 Lon: 147.24 Height: 1260.47 m
Data from the previous 72 hours. | See also: Recent months at Mt Wellington
Date/Time
EST
Tmp

°C
App
Tmp
°C
Dew
Point
°C
Rel
Hum
%
Delta-T

°C
Wind Press
QNH
hPa
Press
MSL
hPa
Rain
since
9 am
mm
Dir
 
Spd
km/h
Gust
km/h
Spd
kts
Gust
kts
30/06:30am -1.4 -15.3 -2.8 90 0.4 WNW 61 83 33 45 - - 11.0
30/06:00am -0.8 -16.4 -3.8 80 1.0 WNW 69 93 37 50 - - 11.0
30/05:30am -0.8 -17.0 -3.8 80 1.0 W 72 120 39 65 - - 11.0
30/05:00am -0.8 -18.5 -3.8 80 1.0 W 80 119 43 64 - - 11.0
30/04:30am -0.9 -17.4 -3.3 84 0.8 W 74 106 40 57 - - 11.0
30/04:00am -1.1 -18.3 -3.3 85 0.7 W 78 106 42 57 - - 11.0
30/03:30am -1.2 -18.7 -2.5 91 0.4 W 80 109 43 59 - - 11.0
30/03:16am -1.0 -19.0 -1.6 96 0.2 W 83 102 45 55 - - 11.0
30/03:00am -1.2 -14.2 -1.6 97 0.1 W 57 85 31 46 - - 11.0
30/02:57am -1.2 -13.3 -1.6 97 0.1 W 52 78 28 42 - - 11.0
30/02:56am -1.3 -12.3 -1.7 97 0.1 W 46 61 25 33 - - 11.0
30/02:30am -1.3 -16.8 -1.7 97 0.1 W 70 102 38 55 - - 11.0
30/02:23am -1.2 -15.8 -1.6 97 0.1 W 65 102 35 55 - - 11.0
30/02:12am -1.1 -14.1 -1.5 97 0.1 W 57 76 31 41 - - 11.0
30/02:11am -1.1 -13.9 -1.5 97 0.1 W 56 69 30 37 - - 11.0
30/02:01am -0.8 -17.8 -1.4 96 0.2 W 78 122 42 66 - - 11.0
30/02:00am -0.9 -17.5 -1.5 96 0.2 W 76 104 41 56 - - 11.0
30/01:34am -0.9 -16.5 -2.6 88 0.6 W 70 89 38 48 - - 11.0
30/01:30am -0.9 -21.3 -2.8 87 0.6 W 95 150 51 81 - - 11.0
30/01:26am -0.8 -20.1 -3.0 85 0.8 W 89 150 48 81 - - 11.0
30/01:20am -1.2 -19.1 -2.6 90 0.5 W 82 111 44 60 - - 11.0
30/01:19am -1.2 -18.7 -2.6 90 0.5 W 80 95 43 51 - - 11.0
30/01:10am -1.0 -22.8 -2.9 87 0.6 W 102 132 55 71 - - 11.0
30/01:09am -1.2 -22.5 -2.6 90 0.5 W 100 117 54 63 - - 11.0
30/01:00am -1.4 -18.5 -2.2 94 0.2 WSW 78 126 42 68 - - 11.0
30/12:30am -1.0 -18.8 -1.6 96 0.2 W 82 119 44 64 - - 11.0
30/12:16am -1.0 -21.5 -2.1 92 0.4 W 96 119 52 64 - - 11.0
30/12:09am -1.2 -16.7 -1.6 97 0.1 W 70 111 38 60 - - 11.0
30/12:00am -1.2 -15.8 -1.6 97 0.1 WSW 65 83 35 45 - - 11.0
 
Date/Time
EST
Tmp

°C
App
Tmp
°C
Dew
Point
°C
Rel
Hum
%
Delta-T

°C
Wind Press
QNH
hPa
Press
MSL
hPa
Rain
since
9 am
mm
Dir
 
Spd
km/h
Gust
km/h
Spd
kts
Gust
kts
29/11:41pm -0.4 -16.8 -2.4 86 0.7 W 74 95 40 51 - - 11.0
29/11:40pm -0.4 -16.0 -2.4 86 0.7 W 70 87 38 47 - - 11.0
29/11:31pm -0.4 -20.4 -2.9 83 0.9 W 93 150 50 81 - - 10.8
29/11:30pm -0.4 -20.1 -2.9 83 0.9 W 91 128 49 69 - - 10.8
29/11:16pm -0.7 -19.4 -1.7 93 0.3 W 87 113 47 61 - - 10.8
29/11:14pm -0.8 -15.3 -1.4 96 0.2 W 65 111 35 60 - - 10.8
29/11:07pm -0.6 -13.4 -1.2 96 0.2 WSW 56 83 30 45 - - 10.8
29/11:00pm -0.1 -17.1 -1.5 90 0.5 W 78 128 42 69 - - 10.8
29/10:52pm 0.3 -18.5 -2.1 84 0.9 W 87 109 47 59 - - 10.8
29/10:33pm 0.3 -13.9 -1.8 86 0.8 W 63 102 34 55 - - 10.8
29/10:31pm 0.3 -13.5 -1.9 85 0.8 W 61 82 33 44 - - 10.8
29/10:30pm 0.3 -13.9 -1.9 85 0.8 W 63 82 34 44 - - 10.8
29/10:28pm 0.4 -14.2 -2.0 84 0.9 W 65 82 35 44 - - 10.8
29/10:00pm 0.5 -18.4 -2.5 80 1.1 W 87 133 47 72 - - 10.8
29/09:55pm 0.6 -17.3 -2.8 78 1.3 W 82 133 44 72 - - 10.8
29/09:49pm 0.5 -15.9 -2.7 79 1.2 W 74 111 40 60 - - 10.8
29/09:48pm 0.5 -15.0 -2.7 79 1.2 W 69 87 37 47 - - 10.8
29/09:30pm 0.8 -19.2 -2.6 78 1.3 W 93 135 50 73 - - 10.8
29/09:24pm 0.6 -17.5 -2.3 81 1.1 W 83 122 45 66 - - 10.8
29/09:21pm 0.4 -15.9 -1.7 86 0.8 W 74 98 40 53 - - 10.8
29/09:14pm 0.6 -20.6 -1.6 85 0.9 W 100 152 54 82 - - 10.8
29/09:05pm 0.8 -22.6 -2.2 80 1.2 W 111 133 60 72 - - 10.8
29/09:00pm 0.5 -17.8 -1.3 88 0.7 W 85 128 46 69 - - 10.8
29/08:30pm 0.2 -17.7 -0.9 92 0.4 W 83 120 45 65 - - 10.8
29/08:26pm 0.2 -17.7 -0.9 92 0.4 W 83 119 45 64 - - 10.8
29/08:20pm 0.3 -15.9 -0.8 92 0.4 W 74 98 40 53 - - 10.8
29/08:17pm 0.6 -21.7 -1.3 87 0.8 W 106 124 57 67 - - 10.8
29/08:00pm 0.8 -14.7 -1.3 86 0.8 WNW 70 107 38 58 - - 10.8
29/07:51pm 1.2 -14.7 -1.5 82 1.0 WNW 72 107 39 58 - - 10.8
29/07:46pm 1.1 -13.6 -0.2 91 0.5 WNW 67 87 36 47 - - 10.8
29/07:30pm 1.1 -17.8 -0.1 92 0.5 W 89 130 48 70 - - 10.8
29/07:19pm 0.8 -16.0 0.2 96 0.2 W 78 124 42 67 - - 10.8
29/07:18pm 0.8 -14.8 0.1 95 0.3 W 72 95 39 51 - - 10.8
29/07:08pm 1.0 -19.2 0.4 96 0.2 W 96 132 52 71 - - 10.8
29/07:00pm 0.7 -12.8 0.4 98 0.1 WNW 61 102 33 55 - - 10.6
29/06:42pm 0.5 -12.7 -0.1 96 0.2 WNW 59 83 32 45 - - 10.6
29/06:30pm 1.1 -17.0 0.1 93 0.4 W 85 126 46 68 - - 10.6
29/06:00pm 0.5 -18.4 0.1 97 0.2 W 89 128 48 69 - - 10.6
29/05:50pm 0.9 -18.3 0.6 98 0.1 W 91 137 49 74 - - 10.6
29/05:49pm 0.8 -16.7 0.7 99 0.0 W 82 98 44 53 - - 10.4
29/05:47pm 1.0 -11.5 0.9 99 0.0 W 56 91 30 49 - - 10.4
29/05:43pm 1.6 -9.7 1.5 99 0.0 W 50 67 27 36 - - 10.0
29/05:30pm 2.3 -10.0 2.2 99 0.0 WNW 56 80 30 43 - - 9.6
29/05:05pm 2.2 -11.8 2.1 99 0.0 WNW 65 95 35 51 - - 9.6
29/05:04pm 2.2 -11.0 2.1 99 0.0 WNW 61 80 33 43 - - 9.6
29/05:00pm 2.2 -16.0 2.1 99 0.0 WNW 87 122 47 66 - - 9.6
29/04:56pm 1.9 -18.8 1.8 99 0.0 WNW 100 122 54 66 - - 9.6
29/04:55pm 1.9 -12.9 1.8 99 0.0 WNW 69 122 37 66 - - 9.4
29/04:54pm 2.0 -12.0 1.9 99 0.0 WNW 65 104 35 56 - - 9.4
29/04:48pm 2.2 -11.0 2.1 99 0.0 WNW 61 83 33 45 - - 9.0
29/04:34pm 2.5 -7.5 2.4 99 0.0 NNW 44 65 24 35 - - 7.6
29/04:30pm 2.5 -8.2 2.4 99 0.0 NW 48 65 26 35 - - 7.2
29/04:03pm 2.3 -8.5 2.2 99 0.0 NNW 48 67 26 36 - - 6.2
29/04:00pm 2.3 -8.8 2.2 99 0.0 NW 50 67 27 36 - - 6.0
29/03:30pm 2.0 -10.5 1.9 99 0.0 NNW 57 82 31 44 - - 4.8
29/03:01pm 1.4 -12.0 1.3 99 0.0 NW 61 83 33 45 - - 3.8
29/03:00pm 1.3 -11.7 1.2 99 0.0 NW 59 78 32 42 - - 3.8
29/02:30pm 1.0 -13.6 0.9 99 0.0 NW 67 87 36 47 - - 3.0
29/02:00pm 0.4 -16.0 0.1 98 0.1 NW 76 96 41 52 - - 2.8
29/01:30pm 0.3 -15.7 0.0 98 0.1 NW 74 95 40 51 - - 2.8
29/01:00pm 0.0 -14.4 -0.3 98 0.1 NW 65 85 35 46 - - 2.8
29/12:41pm 0.0 -12.9 -0.3 98 0.1 NW 57 80 31 43 - - 2.8
29/12:36pm 0.0 -12.3 -0.3 98 0.1 NW 54 70 29 38 - - 2.8
29/12:30pm -0.1 -16.2 -0.4 98 0.1 NW 74 95 40 51 - - 2.8
29/12:00pm 0.0 -14.8 -0.3 98 0.1 WNW 67 91 36 49 - - 2.6
29/11:32am 0.1 -12.7 -0.2 98 0.1 WNW 57 78 31 42 - - 2.4
29/11:30am 0.1 -13.1 -0.2 98 0.1 WNW 59 78 32 42 - - 2.2
29/11:07am 0.4 -13.2 0.1 98 0.1 WNW 61 80 33 43 - - 2.0
29/11:00am 0.6 -12.2 0.2 97 0.2 WNW 57 74 31 40 - - 1.8
29/10:30am 1.7 -13.5 0.5 92 0.5 WNW 70 91 38 49 - - 1.6
29/10:06am 2.1 -12.7 1.7 97 0.2 WNW 69 95 37 51 - - 1.6
29/10:00am 2.3 -13.1 2.0 98 0.1 WNW 72 87 39 47 - - 1.6
29/09:56am 2.3 -14.2 2.2 99 0.0 WNW 78 87 42 47 - - 1.6
29/09:53am 2.1 -9.5 2.0 99 0.0 WNW 52 80 28 43 - - 1.6
29/09:35am 2.5 -6.1 2.4 99 0.0 WNW 37 57 20 31 - - 1.4
29/09:30am 2.9 -5.3 2.8 99 0.0 WNW 35 44 19 24 - - 1.2
29/09:00am 2.9 -8.9 2.8 99 0.0 NW 54 80 29 43 - - 5.8
29/08:30am 2.8 -9.0 2.7 99 0.0 NW 54 74 29 40 - - 5.0
29/08:00am 2.6 -9.6 2.5 99 0.0 NNW 56 76 30 41 - - 5.0
29/07:57am 2.7 -9.5 2.6 99 0.0 NNW 56 76 30 41 - - 5.0
29/07:30am 2.2 -9.7 2.1 99 0.0 NNW 54 69 29 37 - - 4.0
29/07:00am 1.9 -11.8 1.8 99 0.0 NNW 63 83 34 45 - - 2.4
29/06:30am 2.1 -13.3 2.0 99 0.0 NNW 72 93 39 50 - - 0.6
29/06:00am 1.9 -14.2 1.8 99 0.0 NNW 76 98 41 53 - - 0.6
29/05:30am 2.3 -13.8 2.2 99 0.0 NNW 76 98 41 53 - - 0.4
29/05:00am 2.2 -15.0 2.1 99 0.0 NNW 82 102 44 55 - - 0.4
29/04:30am 2.1 -14.4 1.8 98 0.1 NW 78 96 42 52 - - 0.4
29/04:22am 2.1 -14.0 1.8 98 0.1 NW 76 96 41 52 - - 0.4
29/04:00am 2.0 -14.9 1.7 98 0.1 NW 80 96 43 52 - - 0.4
29/03:33am 2.1 -14.0 1.8 98 0.1 NW 76 96 41 52 - - 0.4
29/03:30am 2.1 -14.4 1.8 98 0.1 NW 78 96 42 52 - - 0.4
29/03:00am 2.1 -15.2 1.8 98 0.1 NW 82 102 44 55 - - 0.4
29/02:30am 2.1 -14.4 1.8 98 0.1 NW 78 102 42 55 - - 0.4
29/02:00am 2.0 -13.0 1.7 98 0.1 NW 70 91 38 49 - - 0.2
29/01:31am 1.8 -13.6 1.5 98 0.1 NW 72 91 39 49 - - 0.2
29/01:30am 1.8 -14.0 1.5 98 0.1 NW 74 91 40 49 - - 0.2
29/01:00am 1.9 -13.9 1.6 98 0.1 WNW 74 96 40 52 - - 0.2
29/12:31am 1.7 -12.0 1.4 98 0.1 NW 63 85 34 46 - - 0.2
29/12:30am 1.7 -12.0 1.4 98 0.1 NW 63 80 34 43 - - 0.2
29/12:00am 1.9 -14.4 1.0 94 0.4 WNW 76 104 41 56 - - 0.2
 
Date/Time
EST
Tmp

°C
App
Tmp
°C
Dew
Point
°C
Rel
Hum
%
Delta-T

°C
Wind Press
QNH
hPa
Press
MSL
hPa
Rain
since
9 am
mm
Dir
 
Spd
km/h
Gust
km/h
Spd
kts
Gust
kts
28/11:38pm 1.6 -13.5 1.3 98 0.1 NW 70 91 38 49 - - 0.2
28/11:30pm 1.6 -13.3 1.3 98 0.1 NW 69 82 37 44 - - 0.2
28/11:04pm 1.5 -13.0 1.2 98 0.1 WNW 67 96 36 52 - - 0.2
28/11:00pm 1.5 -13.0 1.2 98 0.1 WNW 67 85 36 46 - - 0.2
28/10:30pm 2.0 -13.6 0.7 91 0.5 WNW 72 93 39 50 - - 0.2
28/10:02pm 1.8 -14.1 1.2 96 0.2 WNW 74 93 40 50 - - 0.2
28/10:00pm 1.7 -13.8 1.3 97 0.2 WNW 72 89 39 48 - - 0.2
28/09:41pm 1.6 -11.8 1.3 98 0.1 WNW 61 82 33 44 - - 0.2
28/09:30pm 1.5 -12.7 1.2 98 0.1 WNW 65 82 35 44 - - 0.2
28/09:00pm 1.5 -12.3 1.2 98 0.1 WNW 63 91 34 49 - - 0.2
28/08:31pm 1.8 -12.3 1.5 98 0.1 NW 65 83 35 45 - - 0.2
28/08:30pm 1.8 -12.3 1.5 98 0.1 NW 65 82 35 44 - - 0.2
28/08:00pm 1.8 -11.5 1.5 98 0.1 NW 61 83 33 45 - - 0.0
28/07:30pm 1.6 -13.5 1.3 98 0.1 WNW 70 91 38 49 - - 0.0
28/07:07pm 1.4 -13.1 1.1 98 0.1 WNW 67 87 36 47 - - 0.0
28/07:00pm 1.5 -13.0 1.2 98 0.1 WNW 67 83 36 45 - - 0.0
28/06:30pm 1.7 -13.5 0.8 94 0.4 NW 70 96 38 52 - - 0.0
28/06:00pm 2.3 -12.9 0.5 88 0.7 NW 70 91 38 49 - - 0.0
28/05:34pm 2.2 -13.1 0.1 86 0.8 NW 70 89 38 48 - - 0.0
28/05:30pm 2.1 -13.2 0.0 86 0.8 NW 70 89 38 48 - - 0.0
28/05:00pm 2.3 -13.0 0.2 86 0.8 NW 70 91 38 49 - - 0.0
28/04:30pm 2.6 -10.6 -0.2 82 1.1 WNW 59 78 32 42 - - 0.0
28/04:00pm 3.3 -9.6 -0.3 77 1.5 NW 57 78 31 42 - - 0.0
28/03:30pm 3.7 -7.0 0.1 77 1.5 NW 46 72 25 39 - - 0.0
28/03:05pm 4.1 -6.6 0.3 76 1.6 NW 46 65 25 35 - - 0.0
28/03:00pm 3.9 -7.6 0.2 77 1.5 NW 50 65 27 35 - - 0.0
28/02:31pm 4.2 -5.8 0.9 79 1.4 NW 43 61 23 33 - - 0.0
28/02:30pm 4.0 -6.2 0.9 80 1.3 NW 44 61 24 33 - - 0.0
28/02:00pm 4.5 -5.5 1.0 78 1.5 NW 43 63 23 34 - - 0.0
28/01:44pm 4.8 -4.0 1.1 77 1.6 NW 37 57 20 31 - - 0.0
28/01:30pm 4.4 -5.2 0.9 78 1.5 NW 41 52 22 28 - - 0.0
28/01:20pm 3.5 -5.0 0.9 83 1.1 NW 35 56 19 30 - - 0.0
28/01:00pm 3.6 -6.4 1.2 84 1.0 WNW 43 59 23 32 - - 0.0
28/12:30pm 2.9 -6.9 2.3 96 0.3 WNW 43 56 23 30 - - 0.0
28/12:11pm 2.4 -6.6 2.3 99 0.0 WNW 39 57 21 31 - - 0.0
28/12:00pm 2.5 -6.1 2.4 99 0.0 WNW 37 52 20 28 - - 0.0
28/11:30am 2.8 -5.4 2.7 99 0.0 NW 35 57 19 31 - - 0.0
28/11:22am 2.7 -6.3 2.6 99 0.0 NW 39 57 21 31 - - 0.0
28/11:00am 2.9 -4.9 2.6 98 0.1 NW 33 48 18 26 - - 0.0
28/10:38am 2.6 -5.7 2.3 98 0.1 WNW 35 56 19 30 - - 0.0
28/10:30am 2.5 -6.2 2.2 98 0.1 WNW 37 52 20 28 - - 0.0
28/10:05am 2.5 -7.5 2.2 98 0.1 WNW 44 65 24 35 - - 0.0
28/10:00am 2.4 -8.8 2.1 98 0.1 WNW 50 65 27 35 - - 0.0
28/09:46am 2.4 -8.0 2.1 98 0.1 WNW 46 74 25 40 - - 0.0
28/09:30am 2.8 -7.9 2.5 98 0.1 WNW 48 65 26 35 - - 0.0
28/09:00am 2.6 -7.4 2.3 98 0.1 NW 44 56 24 30 - - 0.2
28/08:30am 2.6 -7.2 2.3 98 0.1 NW 43 52 23 28 - - 0.2
28/08:00am 2.6 -6.9 2.0 96 0.3 WNW 41 59 22 32 - - 0.2
28/07:51am 2.5 -6.7 1.5 93 0.4 WNW 39 59 21 32 - - 0.2
28/07:30am 2.5 -6.6 2.1 97 0.2 NW 39 56 21 30 - - 0.2
28/07:00am 2.8 -6.7 1.6 92 0.5 WNW 41 56 22 30 - - 0.2
28/06:36am 3.1 -7.3 2.2 94 0.4 WNW 46 65 25 35 - - 0.2
28/06:30am 3.2 -7.9 2.3 94 0.4 WNW 50 65 27 35 - - 0.2
28/06:00am 3.5 -7.1 3.1 97 0.2 WNW 48 69 26 37 - - 0.2
28/05:53am 3.6 -7.0 3.2 97 0.2 WNW 48 69 26 37 - - 0.2
28/05:30am 3.6 -7.3 3.3 98 0.1 WNW 50 63 27 34 - - 0.2
28/05:00am 3.5 -7.1 3.2 98 0.1 WNW 48 63 26 34 - - 0.2
28/04:30am 3.2 -6.1 2.8 97 0.2 NW 41 54 22 29 - - 0.0
28/04:00am 3.2 -6.7 2.6 96 0.3 NW 44 57 24 31 - - 0.0
28/03:30am 3.1 -7.6 2.4 95 0.3 NW 48 59 26 32 - - 0.0
28/03:23am 3.1 -7.6 2.4 95 0.3 NW 48 67 26 36 - - 0.0
28/03:00am 3.2 -8.7 2.2 93 0.4 NW 54 70 29 38 - - 0.0
28/02:30am 2.8 -9.5 2.1 95 0.3 NW 56 76 30 41 - - 0.0
28/02:00am 2.7 -8.5 2.0 95 0.3 NW 50 69 27 37 - - 0.0
28/01:30am 2.7 -9.6 2.1 96 0.3 NW 56 76 30 41 - - 0.0
28/01:06am 2.5 -10.0 2.2 98 0.1 NW 57 78 31 42 - - 0.0
28/01:00am 2.6 -10.2 2.3 98 0.1 NW 59 78 32 42 - - 0.0
28/12:30am 2.5 -11.1 2.2 98 0.1 NW 63 80 34 43 - - 0.0
28/12:00am 2.6 -11.0 2.5 99 0.0 NW 63 78 34 42 - - 0.0
 
Date/Time
EST
Tmp

°C
App
Tmp
°C
Dew
Point
°C
Rel
Hum
%
Delta-T

°C
Wind Press
QNH
hPa
Press
MSL
hPa
Rain
since
9 am
mm
Dir
 
Spd
km/h
Gust
km/h
Spd
kts
Gust
kts
27/11:34pm 2.6 -9.2 2.5 99 0.0 NW 54 74 29 40 - - 0.0
27/11:30pm 2.6 -9.2 2.5 99 0.0 NW 54 69 29 37 - - 0.0
27/11:00pm 2.8 -8.6 2.7 99 0.0 NW 52 67 28 36 - - 0.0
27/10:33pm 2.8 -9.4 2.7 99 0.0 NW 56 78 30 42 - - 0.0
27/10:30pm 2.8 -9.0 2.7 99 0.0 NW 54 70 29 38 - - 0.0
27/10:00pm 3.0 -7.6 2.9 99 0.0 NW 48 63 26 34 - - 0.0
27/09:30pm 3.0 -8.1 2.7 98 0.1 NW 50 63 27 34 - - 0.0
27/09:00pm 3.0 -8.4 2.7 98 0.1 NW 52 70 28 38 - - 0.0
27/08:57pm 3.0 -8.1 2.7 98 0.1 NW 50 70 27 38 - - 0.0
27/08:30pm 2.6 -7.2 2.3 98 0.1 NW 43 56 23 30 - - 0.0
27/08:00pm 2.4 -6.3 2.1 98 0.1 NNW 37 52 20 28 - - 0.0
27/07:30pm 2.4 -6.0 1.8 96 0.3 NW 35 46 19 25 - - 0.0
27/07:00pm 2.5 -5.9 1.3 92 0.5 NW 35 46 19 25 - - 0.0
27/06:30pm 2.9 -5.0 1.1 88 0.8 NW 32 44 17 24 - - 0.0
27/06:00pm 2.8 -5.3 1.2 89 0.7 NW 33 44 18 24 - - 0.0
27/05:30pm 2.7 -6.1 1.2 90 0.6 NW 37 46 20 25 - - 0.0
27/05:00pm 2.8 -5.6 1.3 90 0.6 WNW 35 46 19 25 - - 0.0
27/04:30pm 3.3 -6.2 1.5 88 0.8 NW 41 52 22 28 - - 0.0
27/04:00pm 3.1 -6.1 1.5 89 0.7 WNW 39 48 21 26 - - 0.0
27/03:30pm 3.3 -6.3 1.3 87 0.8 NW 41 56 22 30 - - 0.0
27/03:00pm 3.3 -6.2 1.5 88 0.8 NW 41 52 22 28 - - 0.0
27/02:38pm 3.4 -5.7 1.6 88 0.8 NW 39 59 21 32 - - 0.0
27/02:30pm 3.5 -5.6 1.7 88 0.8 NW 39 54 21 29 - - 0.0
27/02:00pm 3.4 -6.1 1.6 88 0.8 NW 41 56 22 30 - - 0.0
27/01:30pm 3.1 -6.1 1.5 89 0.7 WNW 39 50 21 27 - - 0.0
27/01:00pm 3.0 -6.2 1.2 88 0.8 W 39 46 21 25 - - 0.0
27/12:30pm 3.2 -5.2 1.4 88 0.8 W 35 46 19 25 - - 0.0
27/12:00pm 2.7 -5.4 1.2 90 0.6 WNW 33 43 18 23 - - 0.0
27/11:30am 3.2 -3.1 1.6 89 0.7 W 24 30 13 16 - - 0.0
27/11:00am 3.9 -2.7 -0.7 72 1.9 W 24 37 13 20 - - 0.0
27/10:30am 4.3 -2.0 -1.1 68 2.2 W 22 30 12 16 - - 0.0
27/10:00am 3.7 -2.2 1.4 85 1.0 WNW 22 32 12 17 - - 0.0
27/09:30am 3.3 -5.1 1.5 88 0.8 W 35 41 19 22 - - 0.0
27/09:00am 2.2 -5.0 1.0 92 0.5 W 28 35 15 19 - - 0.0
27/08:30am 1.8 -4.5 1.4 97 0.2 WNW 24 32 13 17 - - 0.0
27/08:00am 1.8 -3.7 0.5 91 0.5 W 19 20 10 11 - - 0.0
27/07:30am 2.8 -2.7 0.5 85 0.9 WNW 19 26 10 14 - - 0.0
27/07:00am 3.2 -0.5 -0.1 79 1.3 NW 9 13 5 7 - - 0.0

Latest Capital City Observations: Canberra | Sydney | Melbourne | Brisbane | Adelaide | Perth | Hobart | Darwin

Other Formats:

Comma delimited format used in spreadsheet applications
http://www.bom.gov.au/fwo/IDT60901/IDT60901.95979.axf

JavaScript Object Notation format (JSON) in row-major order
http://www.bom.gov.au/fwo/IDT60901/IDT60901.95979.json